Terminal Aerodrome Forecast
Issued by NWS Cleveland, OH

Home | Current Version | Previous Version | Text Only | Print | Product List | Glossary Off
Versions: 1 2 3 4 5 6 7 8 9 10 11 12 13 14 15 16

000
FTUS41 KCLE 161100
TAFCAK
TAF
KCAK 161140Z 1612/1712 14010KT P6SM SCT060 OVC150
     FM161500 17014KT P6SM VCSH BKN035 OVC100
     FM161800 17012KT P6SM VCSH BKN015 OVC025
      TEMPO 1618/1622 5SM -SHRA OVC015
     FM170300 18010KT P6SM BKN008 OVC014
     FM170800 21008KT P6SM OVC010=

USA.gov is the U.S. government's official web portal to all federal, state and local government web resources and services.